Nada, Texas
Current Conditions -  °F | °C
As of 10:35 AM on Tuesday 27 Jan 2015 (Local Time) from KELA Reporting Station
Clear Clear  
Wind Chill: 67°   Ceiling: Unl
Heat Index: 67°   Visibility: 10mi
Dew Point: 44°   Wind: 8mph
Humidity: 42%   Direction: 310°NW
Pressure: 30.18"   Gusts: NA
Location:  29.41°N, 96.39°W
Report Text: KELA 271635Z AUTO 31007KT 10SM CLR 20/06 A3018 RMK AO2 T01970064
Loading
Personal Weather Stations






























Interactive Weather Map New forecast layout! Learn more

10-Day Weather Forecast

Advertisements
Track Severe Weather on mobile